createdAt,value
2024-04-12T00:02:18.099Z,18.82
2024-04-12T00:04:48.532Z,18.82
2024-04-12T00:07:20.039Z,18.83
2024-04-12T00:10:04.007Z,18.80
2024-04-12T00:12:35.491Z,18.84
2024-04-12T00:15:19.547Z,18.83
2024-04-12T00:17:50.696Z,18.84
2024-04-12T00:20:23.366Z,18.83
2024-04-12T00:22:58.338Z,18.80
2024-04-12T00:25:29.388Z,18.82
2024-04-12T00:28:00.518Z,18.84
2024-04-12T00:30:43.772Z,18.82
2024-04-12T00:33:14.501Z,18.86
2024-04-12T00:35:49.033Z,18.80
2024-04-12T00:38:19.685Z,18.83
2024-04-12T00:40:55.223Z,18.89
2024-04-12T00:43:29.844Z,18.90
2024-04-12T00:46:01.348Z,18.90
2024-04-12T00:48:31.668Z,18.89
2024-04-12T00:51:05.138Z,18.89
2024-04-12T00:53:37.076Z,18.90
2024-04-12T00:56:11.893Z,18.90
2024-04-12T00:58:45.117Z,18.92
2024-04-12T01:01:19.427Z,18.93
2024-04-12T01:03:51.720Z,18.93
2024-04-12T01:06:26.821Z,18.96
2024-04-12T01:09:13.959Z,18.99
2024-04-12T01:11:46.314Z,19.00
2024-04-12T01:14:17.251Z,19.03
2024-04-12T01:16:47.730Z,19.06
2024-04-12T01:19:18.218Z,19.07
2024-04-12T01:21:50.207Z,19.07
2024-04-12T01:24:20.772Z,19.10
2024-04-12T01:26:52.064Z,19.14
2024-04-12T01:29:26.480Z,19.15
2024-04-12T01:31:56.934Z,19.14
2024-04-12T01:34:27.502Z,19.15
2024-04-12T01:37:00.384Z,19.17
2024-04-12T01:39:37.178Z,19.20
2024-04-12T01:42:07.763Z,19.20
2024-04-12T01:44:40.534Z,19.20
2024-04-12T01:47:10.907Z,19.20
2024-04-12T01:49:45.944Z,19.17
2024-04-12T01:52:28.169Z,19.14
2024-04-12T01:55:13.391Z,19.15
2024-04-12T01:57:43.851Z,19.18
2024-04-12T02:00:19.367Z,19.17
2024-04-12T02:02:54.551Z,19.17
2024-04-12T02:05:35.760Z,19.18
2024-04-12T02:08:10.864Z,19.18
2024-04-12T02:10:44.210Z,19.23
2024-04-12T02:13:24.349Z,19.23
2024-04-12T02:15:56.234Z,19.24
2024-04-12T02:18:28.511Z,19.23
2024-04-12T02:20:59.085Z,19.27
2024-04-12T02:23:29.456Z,19.27
2024-04-12T02:26:03.831Z,19.30
2024-04-12T02:28:42.544Z,19.28
2024-04-12T02:31:12.986Z,19.27
2024-04-12T02:33:45.131Z,19.31
2024-04-12T02:36:19.875Z,19.31
2024-04-12T02:38:53.367Z,19.31
2024-04-12T02:41:24.518Z,19.30
2024-04-12T02:43:54.884Z,19.31
2024-04-12T02:46:26.667Z,19.31
2024-04-12T02:48:57.111Z,19.31
2024-04-12T02:51:32.036Z,19.28
2024-04-12T02:54:03.401Z,19.31
2024-04-12T02:56:36.174Z,19.28
2024-04-12T02:59:08.175Z,19.28
2024-04-12T03:01:39.025Z,19.31
2024-04-12T03:04:12.505Z,19.32
2024-04-12T03:06:43.525Z,19.32
2024-04-12T03:09:13.895Z,19.32
2024-04-12T03:11:46.184Z,19.28
2024-04-12T03:14:17.584Z,19.31
2024-04-12T03:16:50.107Z,19.31
2024-04-12T03:19:20.893Z,19.34
2024-04-12T03:21:53.400Z,19.31
2024-04-12T03:24:23.808Z,19.30
2024-04-12T03:26:56.861Z,19.31
2024-04-12T03:29:27.450Z,19.31
2024-04-12T03:31:59.272Z,19.30
2024-04-12T03:34:30.016Z,19.27
2024-04-12T03:37:18.640Z,19.28
2024-04-12T03:39:50.582Z,19.30
2024-04-12T03:42:21.108Z,19.32
2024-04-12T03:44:51.530Z,19.28
2024-04-12T03:47:22.112Z,19.31
2024-04-12T03:49:54.876Z,19.30
2024-04-12T03:52:25.255Z,19.34
2024-04-12T03:55:11.343Z,19.32
2024-04-12T03:57:46.640Z,19.35
2024-04-12T04:00:17.168Z,19.38
2024-04-12T04:02:50.632Z,19.38
2024-04-12T04:05:28.117Z,19.42
2024-04-12T04:07:59.010Z,19.44
2024-04-12T04:10:32.496Z,19.41
2024-04-12T04:13:06.393Z,19.44
2024-04-12T04:15:38.633Z,19.42
2024-04-12T04:18:12.794Z,19.44
2024-04-12T04:20:43.253Z,19.42
2024-04-12T04:23:14.234Z,19.42
2024-04-12T04:25:46.658Z,19.45
2024-04-12T04:28:17.727Z,19.45
2024-04-12T04:30:48.127Z,19.47
2024-04-12T04:33:18.669Z,19.45
2024-04-12T04:35:49.566Z,19.47
2024-04-12T04:38:20.026Z,19.50
2024-04-12T04:40:54.750Z,19.45
2024-04-12T04:43:25.754Z,19.51
2024-04-12T04:45:56.188Z,19.51
2024-04-12T04:48:26.703Z,19.51
2024-04-12T04:50:57.143Z,19.52
2024-04-12T04:53:27.740Z,19.55
2024-04-12T04:56:03.642Z,19.59
2024-04-12T04:58:36.810Z,19.57
2024-04-12T05:01:07.811Z,19.57
2024-04-12T05:03:39.085Z,19.58
2024-04-12T05:06:09.664Z,19.57
2024-04-12T05:08:40.152Z,19.57
2024-04-12T05:11:10.536Z,19.58
2024-04-12T05:13:41.651Z,19.59
2024-04-12T05:16:18.231Z,19.61
2024-04-12T05:18:52.114Z,19.59
2024-04-12T05:21:26.234Z,19.61
2024-04-12T05:23:56.866Z,19.59
2024-04-12T05:26:32.173Z,19.61
2024-04-12T05:29:03.924Z,19.64
2024-04-12T05:31:34.581Z,19.65
2024-04-12T05:34:07.521Z,19.65
2024-04-12T05:36:39.040Z,19.66
2024-04-12T05:39:13.815Z,19.64
2024-04-12T05:41:47.029Z,19.68
2024-04-12T05:44:21.370Z,19.65
2024-04-12T05:46:52.002Z,19.69
2024-04-12T05:49:22.954Z,19.71
2024-04-12T05:51:53.723Z,19.72
2024-04-12T05:54:24.547Z,19.69
2024-04-12T05:56:55.517Z,19.71
2024-04-12T05:59:27.208Z,19.75
2024-04-12T06:01:57.604Z,19.75
2024-04-12T06:04:28.061Z,19.78
2024-04-12T06:07:01.828Z,19.78
2024-04-12T06:09:32.334Z,19.75
2024-04-12T06:12:05.296Z,19.76
2024-04-12T06:14:40.931Z,19.78
2024-04-12T06:17:11.359Z,19.78
2024-04-12T06:19:42.143Z,19.78
2024-04-12T06:22:18.176Z,19.78
2024-04-12T06:24:52.032Z,19.76
2024-04-12T06:27:42.641Z,19.75
2024-04-12T06:30:15.776Z,19.78
2024-04-12T06:32:46.381Z,19.78
2024-04-12T06:35:23.166Z,19.82
2024-04-12T06:37:54.820Z,19.79
2024-04-12T06:40:30.617Z,19.79
2024-04-12T06:43:10.343Z,19.79
2024-04-12T06:45:44.425Z,19.81
2024-04-12T06:48:19.995Z,19.82
2024-04-12T06:50:57.398Z,19.82
2024-04-12T06:53:28.146Z,19.82
2024-04-12T06:56:08.801Z,19.81
2024-04-12T06:58:40.746Z,19.81
2024-04-12T07:01:13.352Z,19.81
2024-04-12T07:03:48.653Z,19.82
2024-04-12T07:06:20.855Z,19.81
2024-04-12T07:08:53.951Z,19.83
2024-04-12T07:11:26.689Z,19.81
2024-04-12T07:13:57.054Z,19.82
2024-04-12T07:16:29.157Z,19.81
2024-04-12T07:19:03.164Z,19.81
2024-04-12T07:21:38.416Z,19.81
2024-04-12T07:24:09.477Z,19.79
2024-04-12T07:26:40.037Z,19.81
2024-04-12T07:29:11.840Z,19.82
2024-04-12T07:31:42.303Z,19.78
2024-04-12T07:34:13.403Z,19.78
2024-04-12T07:36:44.690Z,19.79
2024-04-12T07:39:17.830Z,19.79
2024-04-12T07:41:50.975Z,19.81
2024-04-12T07:44:21.308Z,19.81
2024-04-12T07:46:51.868Z,19.82
2024-04-12T07:49:22.410Z,19.82
2024-04-12T07:51:52.832Z,19.81
2024-04-12T07:54:23.483Z,19.82
2024-04-12T07:57:10.054Z,19.81
2024-04-12T07:59:41.028Z,19.81
2024-04-12T08:02:21.079Z,19.81
2024-04-12T08:04:51.753Z,19.76
2024-04-12T08:07:31.580Z,19.75
2024-04-12T08:10:14.978Z,19.75
2024-04-12T08:12:52.377Z,19.72
2024-04-12T08:15:24.355Z,19.69
2024-04-12T08:17:58.087Z,19.66
2024-04-12T08:20:28.664Z,19.65
2024-04-12T08:23:01.411Z,19.68
2024-04-12T08:25:35.458Z,19.65
2024-04-12T08:28:08.958Z,19.64
2024-04-12T08:30:54.159Z,19.62
2024-04-12T08:33:27.225Z,19.64
2024-04-12T08:36:00.364Z,19.64
2024-04-12T08:38:30.954Z,19.66
2024-04-12T08:41:06.143Z,19.71
2024-04-12T08:43:44.236Z,19.66
2024-04-12T08:46:19.508Z,19.66
2024-04-12T08:48:52.081Z,19.74
2024-04-12T08:51:23.976Z,19.72
2024-04-12T08:53:59.359Z,19.75
2024-04-12T08:56:31.528Z,19.75
2024-04-12T08:59:08.044Z,19.72
2024-04-12T09:01:42.923Z,19.78
2024-04-12T09:04:17.938Z,19.78
2024-04-12T09:06:51.055Z,19.81
2024-04-12T09:09:21.622Z,19.85
2024-04-12T09:11:57.337Z,19.87
2024-04-12T09:14:30.740Z,19.90
2024-04-12T09:17:08.924Z,19.93
2024-04-12T09:19:41.672Z,19.95
2024-04-12T09:22:12.543Z,19.93
2024-04-12T09:24:43.181Z,19.95
2024-04-12T09:27:16.138Z,19.99
2024-04-12T09:29:57.588Z,19.99
2024-04-12T09:32:46.701Z,19.96
2024-04-12T09:35:20.001Z,19.99
2024-04-12T09:38:03.839Z,20.00
2024-04-12T09:40:37.222Z,20.03
2024-04-12T09:43:30.628Z,19.99
2024-04-12T09:46:11.425Z,20.02
2024-04-12T09:49:03.400Z,20.02
2024-04-12T09:51:52.061Z,20.02
2024-04-12T09:54:41.884Z,20.03
2024-04-12T09:57:32.535Z,20.08
2024-04-12T10:00:27.062Z,20.09
2024-04-12T10:03:16.609Z,20.12
2024-04-12T10:06:06.379Z,20.12
2024-04-12T10:08:55.300Z,20.16
2024-04-12T10:11:44.387Z,20.16
2024-04-12T10:14:34.035Z,20.19
2024-04-12T10:17:22.465Z,20.17
2024-04-12T10:20:22.348Z,20.22
2024-04-12T10:23:26.538Z,20.23
2024-04-12T10:26:16.414Z,20.23
2024-04-12T10:29:04.716Z,20.26
2024-04-12T10:32:00.401Z,20.32
2024-04-12T10:34:52.273Z,20.30
2024-04-12T10:37:26.279Z,20.34
2024-04-12T10:40:00.544Z,20.36
2024-04-12T10:42:33.628Z,20.39
2024-04-12T10:45:13.518Z,20.40
2024-04-12T10:47:48.284Z,20.40
2024-04-12T10:50:21.612Z,20.39
2024-04-12T10:52:53.900Z,20.41
2024-04-12T10:55:24.452Z,20.40
2024-04-12T10:57:56.719Z,20.43
2024-04-12T11:00:30.571Z,20.46
2024-04-12T11:03:08.633Z,20.47
2024-04-12T11:05:40.325Z,20.48
2024-04-12T11:08:19.699Z,20.53
2024-04-12T11:11:00.127Z,20.53
2024-04-12T11:13:40.964Z,20.54
2024-04-12T11:16:31.427Z,20.53
2024-04-12T11:19:19.908Z,20.56
2024-04-12T11:22:08.267Z,20.57
2024-04-12T11:24:57.065Z,20.64
2024-04-12T11:27:45.545Z,20.67
2024-04-12T11:30:34.134Z,20.68
2024-04-12T11:33:07.716Z,20.74
2024-04-12T11:35:38.200Z,20.77
2024-04-12T11:38:15.632Z,20.83
2024-04-12T11:40:48.104Z,20.90
2024-04-12T11:43:18.532Z,20.97
2024-04-12T11:45:49.326Z,21.05
2024-04-12T11:48:19.804Z,21.11
2024-04-12T11:50:52.057Z,21.09
2024-04-12T11:53:22.796Z,21.11
2024-04-12T11:55:53.530Z,21.11
2024-04-12T11:58:24.881Z,21.09
2024-04-12T12:00:55.326Z,21.08
2024-04-12T12:03:28.094Z,21.11
2024-04-12T12:05:59.760Z,21.09
2024-04-12T12:08:37.936Z,21.05
2024-04-12T12:11:09.057Z,21.05
2024-04-12T12:13:39.659Z,21.02
2024-04-12T12:16:10.117Z,21.04
2024-04-12T12:18:40.743Z,21.06
2024-04-12T12:21:11.400Z,21.14
2024-04-12T12:23:42.242Z,21.22
2024-04-12T12:26:12.738Z,21.31
2024-04-12T12:28:43.093Z,21.34
2024-04-12T12:31:15.887Z,21.39
2024-04-12T12:33:48.083Z,21.38
2024-04-12T12:36:19.658Z,21.36
2024-04-12T12:38:51.115Z,21.35
2024-04-12T12:41:21.055Z,21.47
2024-04-12T12:43:51.612Z,21.52
2024-04-12T12:46:26.482Z,21.53
2024-04-12T12:48:56.922Z,21.55
2024-04-12T12:51:30.088Z,21.62
2024-04-12T12:54:02.768Z,21.73
2024-04-12T12:56:33.677Z,21.77
2024-04-12T12:59:04.085Z,21.76
2024-04-12T13:01:37.339Z,21.77
2024-04-12T13:04:09.689Z,21.79
2024-04-12T13:06:40.848Z,21.76
2024-04-12T13:09:11.315Z,21.73
2024-04-12T13:11:44.765Z,21.79
2024-04-12T13:14:15.214Z,21.80
2024-04-12T13:16:46.219Z,21.85
2024-04-12T13:19:18.324Z,21.87
2024-04-12T13:21:48.980Z,22.00
2024-04-12T13:24:20.870Z,22.04
2024-04-12T13:26:52.916Z,22.06
2024-04-12T13:29:27.259Z,22.25
2024-04-12T13:31:59.824Z,22.30
2024-04-12T13:34:30.299Z,22.41
2024-04-12T13:37:01.831Z,22.65
2024-04-12T13:39:37.481Z,22.71
2024-04-12T13:42:18.330Z,22.71
2024-04-12T13:45:06.812Z,22.68
2024-04-12T13:47:55.492Z,22.67
2024-04-12T13:50:43.951Z,22.62
2024-04-12T13:53:14.379Z,22.67
2024-04-12T13:55:49.104Z,22.75
2024-04-12T13:58:19.592Z,22.69
2024-04-12T14:00:51.615Z,22.62
2024-04-12T14:03:26.396Z,22.61
2024-04-12T14:05:59.309Z,22.59
2024-04-12T14:08:31.187Z,22.81
2024-04-12T14:11:03.674Z,22.79
2024-04-12T14:13:34.124Z,22.91
2024-04-12T14:16:04.564Z,22.88
2024-04-12T14:27:15.016Z,22.76
2024-04-12T14:29:45.793Z,22.88
2024-04-12T14:32:18.104Z,22.82
2024-04-12T14:34:58.289Z,22.73
2024-04-12T14:37:36.695Z,22.73
2024-04-12T14:40:09.186Z,22.73
2024-04-12T14:42:39.705Z,22.82
2024-04-12T14:45:10.340Z,22.78
2024-04-12T14:47:48.616Z,22.88
2024-04-12T14:50:22.966Z,22.88
2024-04-12T14:52:53.403Z,23.08
2024-04-12T14:55:24.117Z,23.17
2024-04-12T14:57:54.511Z,23.29
2024-04-12T15:00:30.374Z,23.12
2024-04-12T15:03:00.688Z,23.19
2024-04-12T15:05:49.389Z,23.19
2024-04-12T15:08:39.651Z,23.17
2024-04-12T15:11:28.107Z,23.12
2024-04-12T15:14:16.733Z,23.12
2024-04-12T15:17:05.310Z,23.15
2024-04-12T15:19:54.284Z,23.13
2024-04-12T15:22:43.235Z,23.13
2024-04-12T15:25:32.061Z,23.17
2024-04-12T15:28:20.574Z,23.12
2024-04-12T15:31:09.084Z,23.08
2024-04-12T15:33:57.806Z,23.05
2024-04-12T15:36:46.357Z,23.13
2024-04-12T15:39:34.871Z,23.22
2024-04-12T15:42:23.587Z,23.23
2024-04-12T15:45:12.466Z,23.20
2024-04-12T15:47:42.844Z,23.15
2024-04-12T15:50:33.617Z,23.22
2024-04-12T15:53:27.549Z,23.26
2024-04-12T15:55:59.494Z,23.26
2024-04-12T15:58:49.574Z,23.24
2024-04-12T16:01:37.984Z,23.20
2024-04-12T16:04:26.398Z,23.10
2024-04-12T16:07:14.864Z,23.13
2024-04-12T16:10:04.681Z,23.23
2024-04-12T16:12:35.727Z,23.33
2024-04-12T16:15:06.535Z,23.42
2024-04-12T16:17:37.047Z,23.24
2024-04-12T16:20:08.198Z,23.15
2024-04-12T16:22:38.588Z,23.22
2024-04-12T16:25:09.129Z,23.16
2024-04-12T16:27:39.494Z,23.12
2024-04-12T16:30:10.057Z,23.09
2024-04-12T16:32:40.500Z,23.12
2024-04-12T16:35:11.754Z,23.06
2024-04-12T16:37:42.300Z,23.15
2024-04-12T16:40:13.250Z,23.17
2024-04-12T16:42:43.666Z,23.20
2024-04-12T16:45:14.186Z,23.16
2024-04-12T16:47:46.817Z,23.15
2024-04-12T16:50:17.959Z,23.09
2024-04-12T16:52:48.315Z,23.22
2024-04-12T16:55:20.048Z,23.23
2024-04-12T16:57:50.477Z,23.20
2024-04-12T17:00:21.399Z,23.15
2024-04-12T17:02:52.140Z,23.20
2024-04-12T17:05:22.584Z,23.17
2024-04-12T17:07:53.077Z,23.16
2024-04-12T17:10:27.933Z,23.15
2024-04-12T17:12:58.326Z,23.12
2024-04-12T17:15:28.779Z,23.20
2024-04-12T17:17:59.438Z,23.20
2024-04-12T17:20:30.054Z,23.24
2024-04-12T17:23:02.853Z,23.31
2024-04-12T17:25:36.203Z,23.30
2024-04-12T17:28:09.772Z,23.31
2024-04-12T17:30:40.160Z,23.22
2024-04-12T17:33:11.125Z,23.08
2024-04-12T17:35:41.531Z,23.00
2024-04-12T17:38:11.911Z,22.92
2024-04-12T17:40:42.277Z,22.76
2024-04-12T17:43:12.935Z,22.73
2024-04-12T17:45:43.309Z,22.73
2024-04-12T17:48:13.999Z,22.72
2024-04-12T17:50:44.485Z,22.86
2024-04-12T17:53:14.882Z,22.85
2024-04-12T17:55:45.866Z,22.85
2024-04-12T17:58:16.912Z,22.85
2024-04-12T18:00:50.633Z,22.79
2024-04-12T18:03:21.036Z,22.88
2024-04-12T18:05:51.453Z,22.78
2024-04-12T18:08:21.885Z,22.71
2024-04-12T18:11:01.325Z,22.64
2024-04-12T18:13:32.356Z,22.64
2024-04-12T18:16:04.648Z,22.64
2024-04-12T18:18:35.147Z,22.67
2024-04-12T18:21:09.200Z,22.58
2024-04-12T18:23:41.111Z,22.52
2024-04-12T18:26:14.322Z,22.47
2024-04-12T18:28:45.197Z,22.38
2024-04-12T18:31:19.610Z,22.31
2024-04-12T18:33:50.688Z,22.28
2024-04-12T18:36:26.541Z,22.27
2024-04-12T18:39:15.160Z,22.30
2024-04-12T18:42:05.625Z,22.25
2024-04-12T18:44:54.113Z,22.31
2024-04-12T18:47:25.251Z,22.27
2024-04-12T18:49:56.699Z,22.30
2024-04-12T18:52:27.522Z,22.21
2024-04-12T18:54:58.159Z,22.22
2024-04-12T18:57:29.829Z,22.18
2024-04-12T19:00:00.307Z,22.18
2024-04-12T19:02:30.855Z,22.20
2024-04-12T19:05:02.562Z,22.21
2024-04-12T19:07:33.019Z,22.27
2024-04-12T19:10:07.025Z,22.22
2024-04-12T19:12:39.079Z,22.18
2024-04-12T19:15:10.245Z,22.14
2024-04-12T19:17:40.662Z,22.13
2024-04-12T19:20:15.397Z,22.14
2024-04-12T19:22:48.162Z,22.16
2024-04-12T19:25:18.630Z,22.08
2024-04-12T19:27:50.648Z,22.01
2024-04-12T19:30:21.125Z,21.97
2024-04-12T19:32:51.799Z,21.92
2024-04-12T19:35:22.596Z,21.80
2024-04-12T19:37:54.528Z,21.77
2024-04-12T19:40:24.976Z,21.69
2024-04-12T19:42:55.893Z,21.70
2024-04-12T19:45:26.486Z,21.69
2024-04-12T19:47:57.244Z,21.67
2024-04-12T19:50:27.736Z,21.60
2024-04-12T19:53:00.158Z,21.59
2024-04-12T19:55:30.640Z,21.55
2024-04-12T19:58:02.542Z,21.52
2024-04-12T20:00:33.589Z,21.50
2024-04-12T20:03:04.296Z,21.46
2024-04-12T20:05:34.832Z,21.43
2024-04-12T20:08:05.470Z,21.39
2024-04-12T20:10:35.792Z,21.45
2024-04-12T20:13:07.275Z,21.42
2024-04-12T20:15:38.542Z,21.41
2024-04-12T20:18:12.076Z,21.41
2024-04-12T20:20:44.719Z,21.41
2024-04-12T20:23:15.936Z,21.35
2024-04-12T20:25:46.319Z,21.38
2024-04-12T20:28:16.696Z,21.38
2024-04-12T20:31:00.942Z,21.39
2024-04-12T20:33:47.964Z,21.36
2024-04-12T20:36:38.239Z,21.36
2024-04-12T20:39:10.874Z,21.36
2024-04-12T20:41:45.587Z,21.32
2024-04-12T20:44:21.131Z,21.32
2024-04-12T20:46:53.689Z,21.28
2024-04-12T20:49:25.160Z,21.28
2024-04-12T20:51:55.016Z,21.29
2024-04-12T20:54:25.358Z,21.26
2024-04-12T20:56:56.705Z,21.24
2024-04-12T20:59:27.077Z,21.26
2024-04-12T21:01:57.312Z,21.21
2024-04-12T21:04:27.694Z,21.16
2024-04-12T21:06:58.425Z,21.18
2024-04-12T21:09:28.753Z,21.15
2024-04-12T21:11:59.448Z,21.16
2024-04-12T21:14:30.935Z,21.14
2024-04-12T21:17:02.766Z,21.12
2024-04-12T21:19:33.098Z,21.09
2024-04-12T21:22:03.499Z,21.08
2024-04-12T21:24:33.975Z,21.06
2024-04-12T21:27:06.633Z,21.09
2024-04-12T21:29:37.076Z,21.09
2024-04-12T21:32:07.989Z,21.09
2024-04-12T21:34:38.331Z,21.11
2024-04-12T21:37:08.752Z,21.08
2024-04-12T21:39:39.227Z,21.11
2024-04-12T21:42:09.780Z,21.09
2024-04-12T21:44:40.056Z,21.08
2024-04-12T21:47:10.943Z,21.14
2024-04-12T21:49:41.381Z,21.12
2024-04-12T21:52:11.920Z,21.12
2024-04-12T21:54:42.861Z,21.15
2024-04-12T21:57:13.279Z,21.16
2024-04-12T21:59:43.694Z,21.12
2024-04-12T22:02:14.083Z,21.12
2024-04-12T22:04:44.391Z,21.12
2024-04-12T22:07:14.587Z,21.15
2024-04-12T22:09:46.091Z,21.11
2024-04-12T22:12:16.606Z,21.12
2024-04-12T22:14:47.552Z,21.08
2024-04-12T22:17:17.993Z,21.05
2024-04-12T22:19:50.855Z,21.05
2024-04-12T22:22:21.287Z,21.01
2024-04-12T22:24:51.753Z,21.04
2024-04-12T22:27:25.361Z,21.02
2024-04-12T22:29:56.559Z,20.98
2024-04-12T22:32:27.307Z,20.99
2024-04-12T22:34:57.747Z,20.99
2024-04-12T22:37:28.160Z,20.98
2024-04-12T22:39:58.531Z,20.95
2024-04-12T22:42:28.976Z,20.98
2024-04-12T22:44:59.361Z,20.95
2024-04-12T22:47:31.180Z,20.95
2024-04-12T22:50:01.750Z,20.94
2024-04-12T22:52:34.622Z,20.97
2024-04-12T22:55:05.460Z,20.92
2024-04-12T22:57:38.029Z,20.92
2024-04-12T23:00:10.690Z,20.91
2024-04-12T23:02:41.243Z,20.92
2024-04-12T23:05:12.942Z,20.92
2024-04-12T23:07:43.549Z,20.91
2024-04-12T23:10:13.905Z,20.91
2024-04-12T23:12:45.433Z,20.88
2024-04-12T23:15:15.980Z,20.87
2024-04-12T23:17:47.123Z,20.85
2024-04-12T23:20:17.659Z,20.84
2024-04-12T23:22:48.100Z,20.80
2024-04-12T23:25:18.467Z,20.84
2024-04-12T23:27:48.894Z,20.83
2024-04-12T23:30:19.355Z,20.81
2024-04-12T23:32:49.789Z,20.80
2024-04-12T23:35:20.173Z,20.83
2024-04-12T23:37:50.796Z,20.85
2024-04-12T23:40:20.979Z,20.83
2024-04-12T23:42:51.493Z,20.83
2024-04-12T23:45:21.899Z,20.84
2024-04-12T23:47:52.400Z,20.83
2024-04-12T23:50:22.610Z,20.81
2024-04-12T23:52:53.037Z,20.83
2024-04-12T23:55:23.494Z,20.85
2024-04-12T23:57:55.358Z,20.85
